Time;durP1;ratioP1;P1;durP2;ratioP2;P2;SDS_P1;SDS_P2;PMS_P1;PMS_P2;Temp;Humidity;BMP_temperature;BMP_pressure;BME280_temperature;BME280_humidity;BME280_pressure;Samples;Min_cycle;Max_cycle;Signal;HPM_P1;HPM_P2
2022/11/27 00:01:00;;;;;;;54.77;49.27;;;2.90;99.90;;;;;;5030595;28;20459;-76
2022/11/27 00:03:28;;;;;;;50.63;46.63;;;2.90;99.90;;;;;;5030605;28;20453;-80
2022/11/27 00:05:57;;;;;;;52.13;47.17;;;2.90;99.90;;;;;;5030400;28;20445;-80
2022/11/27 00:08:24;;;;;;;51.57;46.57;;;2.80;99.90;;;;;;5030238;28;20445;-79
2022/11/27 00:10:51;;;;;;;52.70;47.90;;;2.80;99.90;;;;;;5030022;28;20714;-79
2022/11/27 00:13:18;;;;;;;52.60;47.70;;;2.70;99.90;;;;;;5030101;28;20449;-79
2022/11/27 00:15:45;;;;;;;52.23;47.40;;;2.70;99.90;;;;;;5030086;28;20484;-79
2022/11/27 00:18:12;;;;;;;52.50;47.40;;;2.70;99.90;;;;;;5030370;28;20461;-80
2022/11/27 00:20:40;;;;;;;55.10;50.00;;;2.70;99.90;;;;;;5030069;28;20460;-79
2022/11/27 00:23:07;;;;;;;53.87;48.77;;;2.70;99.90;;;;;;5029964;28;20446;-79
2022/11/27 00:25:34;;;;;;;52.83;47.60;;;2.70;99.90;;;;;;5029986;28;20445;-79
2022/11/27 00:28:01;;;;;;;55.03;49.60;;;2.70;99.90;;;;;;5029733;28;20990;-79
2022/11/27 00:30:28;;;;;;;63.27;48.13;;;2.70;99.90;;;;;;5030315;28;20456;-79
2022/11/27 00:32:54;;;;;;;76.53;51.77;;;2.60;99.90;;;;;;5029955;28;20537;-80
2022/11/27 00:35:21;;;;;;;55.07;49.57;;;2.50;99.90;;;;;;5029886;28;20453;-79
2022/11/27 00:37:49;;;;;;;51.33;46.40;;;2.50;99.90;;;;;;5030070;28;20449;-78
2022/11/27 00:40:16;;;;;;;50.23;44.77;;;2.50;99.90;;;;;;5030054;28;20456;-79
2022/11/27 00:42:43;;;;;;;74.67;52.47;;;2.50;99.90;;;;;;5030153;28;20455;-78
2022/11/27 00:45:12;;;;;;;59.80;53.40;;;2.50;99.90;;;;;;5029848;28;20447;-78
2022/11/27 00:47:38;;;;;;;55.00;48.87;;;2.50;99.90;;;;;;5029840;28;20441;-78
2022/11/27 00:50:07;;;;;;;58.37;51.97;;;2.40;99.90;;;;;;5029722;28;20441;-78
2022/11/27 00:52:34;;;;;;;63.43;53.30;;;2.40;99.90;;;;;;5029894;28;20537;-79
2022/11/27 00:55:02;;;;;;;51.30;46.90;;;2.30;99.90;;;;;;5029815;28;20459;-77
2022/11/27 00:57:29;;;;;;;56.40;50.83;;;2.30;99.90;;;;;;5029756;28;20487;-77
2022/11/27 00:59:56;;;;;;;49.90;45.23;;;2.30;99.90;;;;;;5029673;28;21009;-77
2022/11/27 01:02:23;;;;;;;48.70;44.27;;;2.30;99.90;;;;;;5029643;28;20452;-78
2022/11/27 01:04:50;;;;;;;49.07;44.27;;;2.30;99.90;;;;;;5029593;28;20457;-76
2022/11/27 01:07:17;;;;;;;59.90;47.00;;;2.30;99.90;;;;;;5029621;28;20453;-76
2022/11/27 01:09:43;;;;;;;50.17;44.80;;;2.20;99.90;;;;;;5029547;28;20467;-75
2022/11/27 01:12:11;;;;;;;59.40;49.73;;;2.20;99.90;;;;;;5029479;28;20812;-76
2022/11/27 01:14:38;;;;;;;53.50;47.37;;;2.20;99.90;;;;;;5029622;28;20464;-75
2022/11/27 01:17:05;;;;;;;55.87;50.60;;;2.10;99.90;;;;;;5029378;28;20491;-75
2022/11/27 01:19:32;;;;;;;54.23;48.40;;;2.20;99.90;;;;;;5029567;28;20556;-75
2022/11/27 01:21:59;;;;;;;54.60;49.00;;;2.20;99.90;;;;;;5029577;28;20453;-75
2022/11/27 01:24:26;;;;;;;55.43;50.20;;;2.10;99.90;;;;;;5029347;28;20455;-75
2022/11/27 01:26:52;;;;;;;55.50;49.80;;;2.10;99.90;;;;;;5029463;28;20810;-75
2022/11/27 01:29:20;;;;;;;55.13;49.57;;;2.20;99.90;;;;;;5032899;28;20479;-75
2022/11/27 01:31:47;;;;;;;50.00;44.00;;;2.20;99.90;;;;;;5033228;28;20817;-75
2022/11/27 01:34:17;;;;;;;56.47;50.90;;;2.10;99.90;;;;;;5033192;28;20447;-75
2022/11/27 01:36:44;;;;;;;55.03;49.33;;;2.10;99.90;;;;;;5033152;28;20488;-75
2022/11/27 01:39:15;;;;;;;68.40;52.87;;;2.10;99.90;;;;;;5033040;28;20942;-75
2022/11/27 01:41:42;;;;;;;56.87;51.20;;;2.10;99.90;;;;;;5033142;28;20544;-76
2022/11/27 01:44:49;;;;;;;55.30;49.40;;;2.10;99.90;;;;;;5032820;28;20462;-76
2022/11/27 01:47:25;;;;;;;51.17;46.27;;;2.10;99.90;;;;;;5033003;28;20448;-76
2022/11/27 01:49:55;;;;;;;58.37;52.27;;;2.10;99.90;;;;;;5032989;28;20448;-76
2022/11/27 01:52:27;;;;;;;54.40;48.27;;;2.10;99.90;;;;;;5032811;28;20452;-76
2022/11/27 01:54:57;;;;;;;64.30;52.93;;;2.10;99.90;;;;;;5032725;28;20452;-76
2022/11/27 01:57:26;;;;;;;54.57;48.83;;;2.20;99.90;;;;;;5032515;28;20486;-77
2022/11/27 01:59:57;;;;;;;53.00;47.70;;;2.20;99.90;;;;;;5032695;28;20440;-76
2022/11/27 02:02:24;;;;;;;57.27;50.93;;;2.20;99.90;;;;;;5032366;28;20452;-76
2022/11/27 02:04:51;;;;;;;53.10;48.20;;;2.20;99.90;;;;;;5032538;28;20484;-76
2022/11/27 02:07:18;;;;;;;54.43;48.77;;;2.10;99.90;;;;;;5032648;28;20799;-76
2022/11/27 02:09:45;;;;;;;54.70;49.23;;;2.20;99.90;;;;;;5032553;28;20445;-76
2022/11/27 02:12:23;;;;;;;52.20;46.80;;;2.20;99.90;;;;;;5032384;28;20458;-76
2022/11/27 02:15:00;;;;;;;57.50;51.40;;;2.20;99.90;;;;;;5032273;28;20459;-76
2022/11/27 02:17:32;;;;;;;54.60;49.30;;;2.20;99.90;;;;;;5032441;28;20820;-76
2022/11/27 02:20:15;;;;;;;56.67;50.47;;;2.10;99.90;;;;;;5032585;28;20453;-76
2022/11/27 02:23:05;;;;;;;57.20;51.30;;;2.10;99.90;;;;;;5032163;28;21007;-76
2022/11/27 02:25:42;;;;;;;59.73;53.50;;;2.10;99.90;;;;;;5032287;28;20448;-76
2022/11/27 02:28:37;;;;;;;55.10;49.50;;;2.00;99.90;;;;;;5031920;28;20469;-76
2022/11/27 02:31:09;;;;;;;62.23;52.47;;;2.00;99.90;;;;;;5032131;28;20448;-76
2022/11/27 02:33:41;;;;;;;57.83;52.03;;;2.00;99.90;;;;;;5032004;28;20966;-76
2022/11/27 02:36:14;;;;;;;57.47;50.60;;;2.00;99.90;;;;;;5031991;28;20798;-76
2022/11/27 02:38:45;;;;;;;59.10;52.50;;;1.90;99.90;;;;;;5032020;28;20958;-76
2022/11/27 02:41:17;;;;;;;58.07;52.03;;;1.80;99.90;;;;;;5032036;28;20468;-76
2022/11/27 02:43:48;;;;;;;56.30;50.40;;;1.80;99.90;;;;;;5032045;28;20452;-76
2022/11/27 02:46:19;;;;;;;56.20;49.40;;;1.70;99.90;;;;;;5031978;28;20441;-76
2022/11/27 02:48:49;;;;;;;56.43;50.63;;;1.70;99.90;;;;;;5032100;28;20459;-76
2022/11/27 02:51:21;;;;;;;51.90;46.63;;;1.70;99.90;;;;;;5032126;28;20467;-76
2022/11/27 02:53:52;;;;;;;54.70;48.77;;;1.70;99.90;;;;;;5031382;28;20962;-76
2022/11/27 02:56:23;;;;;;;52.73;47.33;;;1.70;99.90;;;;;;5031396;28;20477;-76
2022/11/27 02:58:52;;;;;;;54.03;48.80;;;1.70;99.90;;;;;;5031574;28;20452;-75
2022/11/27 03:01:23;;;;;;;52.20;46.77;;;1.70;99.90;;;;;;5031414;28;20451;-75
2022/11/27 03:03:52;;;;;;;50.87;45.83;;;1.60;99.90;;;;;;5031539;28;20474;-76
2022/11/27 03:06:25;;;;;;;54.37;48.50;;;1.60;99.90;;;;;;5031496;28;20450;-76
2022/11/27 03:08:57;;;;;;;56.17;50.27;;;1.60;99.90;;;;;;5031329;28;20572;-76
2022/11/27 03:11:25;;;;;;;56.80;49.00;;;1.60;99.90;;;;;;5031470;28;20486;-74
2022/11/27 03:13:55;;;;;;;53.93;48.60;;;1.60;99.90;;;;;;5031492;28;21029;-75
2022/11/27 03:16:29;;;;;;;53.93;48.30;;;1.60;99.90;;;;;;5031383;28;20828;-75
2022/11/27 03:19:02;;;;;;;53.70;47.37;;;1.50;99.90;;;;;;5031180;28;20983;-75
2022/11/27 03:21:34;;;;;;;54.00;46.10;;;1.50;99.90;;;;;;5031002;28;20457;-75
2022/11/27 03:24:01;;;;;;;54.47;45.53;;;1.50;99.90;;;;;;5030968;28;20455;-75
2022/11/27 03:26:28;;;;;;;59.23;48.43;;;1.50;99.90;;;;;;5031259;28;20438;-75
2022/11/27 03:28:58;;;;;;;54.57;46.77;;;1.40;99.90;;;;;;5030418;28;20480;-75
2022/11/27 03:31:26;;;;;;;53.83;48.20;;;1.40;99.90;;;;;;5030567;28;20454;-75
2022/11/27 03:33:54;;;;;;;53.67;48.50;;;1.40;99.90;;;;;;5030436;28;20462;-75
2022/11/27 03:36:22;;;;;;;52.77;47.47;;;1.40;99.90;;;;;;5030382;28;20477;-75
2022/11/27 03:38:51;;;;;;;57.33;48.10;;;1.50;99.90;;;;;;5030402;28;20441;-75
2022/11/27 03:41:25;;;;;;;55.83;48.23;;;1.50;99.90;;;;;;5030621;28;20444;-76
2022/11/27 03:44:06;;;;;;;54.30;48.50;;;1.60;99.90;;;;;;5030202;28;20866;-75
2022/11/27 03:46:40;;;;;;;58.47;47.40;;;1.60;99.90;;;;;;5030326;28;20448;-76
2022/11/27 03:49:20;;;;;;;54.20;46.67;;;1.60;99.90;;;;;;5030322;28;20462;-73
2022/11/27 03:51:55;;;;;;;52.00;46.60;;;1.60;99.90;;;;;;5030274;28;20448;-74
2022/11/27 03:54:32;;;;;;;52.80;47.40;;;1.60;99.90;;;;;;5030194;28;20447;-75
2022/11/27 03:57:05;;;;;;;57.07;49.47;;;1.60;99.90;;;;;;5030562;28;20998;-74
2022/11/27 03:59:37;;;;;;;49.87;44.83;;;1.60;99.90;;;;;;5030399;28;20447;-74
2022/11/27 04:02:05;;;;;;;54.43;47.37;;;1.60;99.90;;;;;;5030286;28;20451;-74
2022/11/27 04:04:32;;;;;;;52.80;47.07;;;1.60;99.90;;;;;;5030356;28;20458;-74
2022/11/27 04:06:58;;;;;;;71.43;46.57;;;1.60;99.90;;;;;;5030648;28;20452;-74
2022/11/27 04:09:25;;;;;;;47.27;42.90;;;1.60;99.90;;;;;;5031164;28;20450;-73
2022/11/27 04:11:52;;;;;;;51.57;46.27;;;1.70;99.90;;;;;;5030070;28;20462;-73
2022/11/27 04:14:19;;;;;;;48.73;43.90;;;1.60;99.90;;;;;;5031571;28;20451;-74
2022/11/27 04:16:45;;;;;;;54.57;45.07;;;1.60;99.90;;;;;;5031446;28;20486;-74
2022/11/27 04:19:13;;;;;;;46.83;42.23;;;1.50;99.90;;;;;;5032964;28;20482;-75
2022/11/27 04:21:40;;;;;;;51.50;45.27;;;1.50;99.90;;;;;;5040965;28;20448;-75
2022/11/27 04:24:07;;;;;;;49.70;44.57;;;1.50;99.90;;;;;;5039878;28;20459;-73
2022/11/27 04:26:34;;;;;;;52.60;46.93;;;1.50;99.90;;;;;;5037507;28;20446;-74
2022/11/27 04:29:00;;;;;;;47.87;43.47;;;1.50;99.90;;;;;;5030148;28;20480;-75
2022/11/27 04:31:27;;;;;;;46.33;42.07;;;1.40;99.90;;;;;;5030223;28;20449;-76
2022/11/27 04:33:54;;;;;;;50.67;45.40;;;1.30;99.90;;;;;;5029967;28;20454;-75
2022/11/27 04:36:22;;;;;;;50.90;45.60;;;1.30;99.90;;;;;;5029763;28;20962;-75
2022/11/27 04:38:49;;;;;;;49.30;43.37;;;1.30;99.90;;;;;;5029708;28;20484;-75
2022/11/27 04:41:15;;;;;;;48.17;42.70;;;1.30;99.90;;;;;;5029975;28;20449;-75
2022/11/27 04:43:42;;;;;;;44.30;40.50;;;1.20;99.90;;;;;;5029820;28;20450;-75
2022/11/27 04:46:09;;;;;;;50.20;44.80;;;1.20;99.90;;;;;;5029840;28;20456;-76
2022/11/27 04:48:35;;;;;;;45.57;41.20;;;1.20;99.90;;;;;;5029796;28;20440;-75
2022/11/27 04:51:02;;;;;;;53.03;44.97;;;1.20;99.90;;;;;;5029479;28;20936;-76
2022/11/27 04:53:30;;;;;;;47.23;42.50;;;1.20;99.90;;;;;;5029691;28;20449;-75
2022/11/27 04:55:57;;;;;;;43.07;39.10;;;1.30;99.90;;;;;;5029866;28;20449;-75
2022/11/27 04:58:24;;;;;;;44.50;40.30;;;1.30;99.90;;;;;;5029465;28;20483;-76
2022/11/27 05:00:50;;;;;;;41.30;37.40;;;1.30;99.90;;;;;;5029606;28;20447;-75
2022/11/27 05:03:17;;;;;;;42.07;37.57;;;1.30;99.90;;;;;;5032032;28;20788;-76
2022/11/27 05:05:44;;;;;;;37.97;34.40;;;1.20;99.90;;;;;;5033679;28;20448;-76
2022/11/27 05:08:11;;;;;;;40.13;36.03;;;1.10;99.90;;;;;;5033445;28;20768;-76
2022/11/27 05:10:39;;;;;;;42.47;36.50;;;1.10;99.90;;;;;;5033394;28;20448;-75
2022/11/27 05:13:06;;;;;;;43.23;35.83;;;1.10;99.90;;;;;;5033340;28;20861;-76
2022/11/27 05:15:32;;;;;;;38.60;34.27;;;1.10;99.90;;;;;;5033444;28;20459;-76
2022/11/27 05:17:59;;;;;;;42.83;34.20;;;1.10;99.90;;;;;;5033418;28;20481;-76
2022/11/27 05:20:26;;;;;;;35.70;32.30;;;1.10;99.90;;;;;;5033368;28;20853;-76
2022/11/27 05:22:52;;;;;;;38.67;34.87;;;1.10;99.90;;;;;;5033259;28;21170;-76
2022/11/27 05:25:19;;;;;;;42.43;35.73;;;1.10;99.90;;;;;;5033154;28;20450;-77
2022/11/27 05:27:47;;;;;;;35.30;31.50;;;1.10;99.90;;;;;;5032844;28;20966;-76
2022/11/27 05:30:14;;;;;;;37.87;33.97;;;1.00;99.90;;;;;;5033182;28;20539;-76
2022/11/27 05:32:41;;;;;;;36.30;30.67;;;1.00;99.90;;;;;;5032913;28;20937;-76
2022/11/27 05:35:08;;;;;;;39.93;33.13;;;1.50;99.90;;;;;;5032839;28;20718;-75
2022/11/27 05:37:35;;;;;;;32.93;29.60;;;0.90;99.90;;;;;;5032640;28;20484;-74
2022/11/27 05:40:02;;;;;;;43.73;33.37;;;0.90;99.90;;;;;;5032744;28;20825;-75
2022/11/27 05:42:28;;;;;;;41.10;32.60;;;0.80;99.90;;;;;;5032895;28;20446;-75
2022/11/27 05:44:56;;;;;;;41.83;33.03;;;0.70;99.90;;;;;;5032757;28;20452;-75
2022/11/27 05:47:23;;;;;;;32.30;29.00;;;0.70;99.90;;;;;;5032614;28;20466;-75
2022/11/27 05:49:50;;;;;;;39.80;32.90;;;0.70;99.90;;;;;;5032798;28;20449;-76
2022/11/27 05:52:17;;;;;;;33.10;30.07;;;0.70;99.90;;;;;;5032754;28;20456;-76
2022/11/27 05:54:44;;;;;;;30.47;27.33;;;0.60;99.90;;;;;;5032972;28;20474;-76
2022/11/27 05:57:10;;;;;;;34.73;31.33;;;0.60;99.90;;;;;;5032504;28;20837;-75
2022/11/27 05:59:37;;;;;;;41.20;32.30;;;0.60;99.90;;;;;;5032505;28;20452;-76
2022/11/27 06:02:05;;;;;;;36.03;31.40;;;0.50;99.90;;;;;;5032334;28;20476;-76
2022/11/27 06:04:33;;;;;;;35.30;31.57;;;0.50;99.90;;;;;;5032371;28;20445;-75
2022/11/27 06:07:00;;;;;;;35.40;30.43;;;0.50;99.90;;;;;;5032331;28;20453;-79
2022/11/27 06:09:27;;;;;;;32.57;29.17;;;0.50;99.90;;;;;;5032502;28;20451;-78
2022/11/27 06:11:53;;;;;;;38.87;32.23;;;0.50;99.90;;;;;;5032435;28;20793;-78
2022/11/27 06:14:20;;;;;;;34.33;30.77;;;0.50;99.90;;;;;;5031725;28;20448;-78
2022/11/27 06:16:47;;;;;;;35.03;31.50;;;0.50;99.90;;;;;;5032306;28;20448;-78
2022/11/27 06:19:15;;;;;;;32.33;28.87;;;0.50;99.90;;;;;;5032422;28;20484;-78
2022/11/27 06:21:42;;;;;;;36.10;32.30;;;0.50;99.90;;;;;;5032213;28;20452;-78
2022/11/27 06:24:08;;;;;;;35.27;29.80;;;0.50;99.90;;;;;;5031819;28;20446;-78
2022/11/27 06:26:35;;;;;;;32.03;28.80;;;0.40;99.90;;;;;;5031867;28;20460;-76
2022/11/27 06:29:02;;;;;;;33.63;30.27;;;0.40;99.90;;;;;;5031663;28;20484;-77
2022/11/27 06:31:30;;;;;;;34.20;30.60;;;0.40;99.90;;;;;;5031998;28;20445;-77
2022/11/27 06:33:58;;;;;;;47.37;30.43;;;0.40;99.90;;;;;;5032125;28;20445;-76
2022/11/27 06:36:28;;;;;;;31.67;28.43;;;0.30;99.90;;;;;;5031705;28;20455;-79
2022/11/27 06:38:55;;;;;;;36.20;29.97;;;0.40;99.90;;;;;;5047455;28;20485;-80
2022/11/27 06:41:24;;;;;;;32.07;28.57;;;0.30;99.90;;;;;;5051655;28;21146;-79
2022/11/27 06:43:50;;;;;;;36.57;31.80;;;0.30;99.90;;;;;;5051607;28;20506;-78
2022/11/27 06:46:20;;;;;;;31.87;28.97;;;0.40;99.90;;;;;;5051565;28;20459;-78
2022/11/27 06:48:48;;;;;;;40.23;32.47;;;0.40;99.90;;;;;;5051421;28;20452;-79
2022/11/27 06:51:17;;;;;;;30.43;27.30;;;0.40;99.90;;;;;;5037364;28;20444;-78
2022/11/27 06:53:45;;;;;;;32.07;28.30;;;0.40;99.90;;;;;;5031454;28;20461;-78
2022/11/27 06:56:13;;;;;;;31.90;27.80;;;0.30;99.90;;;;;;5031507;28;20448;-78
2022/11/27 06:58:41;;;;;;;43.63;34.10;;;0.30;99.90;;;;;;5031138;28;20494;-78
2022/11/27 07:01:10;;;;;;;64.93;34.70;;;0.40;99.90;;;;;;5031129;28;20452;-79
2022/11/27 07:03:36;;;;;;;32.67;29.13;;;0.40;99.90;;;;;;5031286;28;20812;-77
2022/11/27 07:06:05;;;;;;;40.63;31.70;;;0.40;99.90;;;;;;5031416;28;20448;-79
2022/11/27 07:08:33;;;;;;;33.70;28.80;;;0.50;99.90;;;;;;5031528;28;20459;-79
2022/11/27 07:11:03;;;;;;;36.53;30.57;;;0.50;99.90;;;;;;5031562;28;20454;-79
2022/11/27 07:13:30;;;;;;;30.60;26.90;;;0.60;99.90;;;;;;5031194;28;20447;-79
2022/11/27 07:16:00;;;;;;;31.20;28.00;;;0.60;99.90;;;;;;5031204;28;20462;-77
2022/11/27 07:18:27;;;;;;;28.97;26.50;;;0.50;99.90;;;;;;5030976;28;20560;-79
2022/11/27 07:20:54;;;;;;;35.10;26.97;;;0.50;99.90;;;;;;5030956;28;20556;-77
2022/11/27 07:23:21;;;;;;;31.17;27.67;;;0.50;99.90;;;;;;5030791;28;20442;-76
2022/11/27 07:25:47;;;;;;;31.60;28.60;;;0.50;99.90;;;;;;5030189;28;20472;-76
2022/11/27 07:28:15;;;;;;;28.00;25.57;;;0.50;99.90;;;;;;5030732;28;20468;-77
2022/11/27 07:30:42;;;;;;;30.00;26.90;;;0.60;99.90;;;;;;5030863;28;20453;-77
2022/11/27 07:33:09;;;;;;;37.00;33.67;;;0.60;99.90;;;;;;5030809;28;20458;-79
2022/11/27 07:35:36;;;;;;;37.47;34.60;;;0.70;99.90;;;;;;5030530;28;20456;-76
2022/11/27 07:38:02;;;;;;;39.27;35.90;;;0.90;99.90;;;;;;5030455;28;20493;-75
2022/11/27 07:40:29;;;;;;;41.57;37.97;;;1.00;99.90;;;;;;5031160;28;20463;-77
2022/11/27 07:42:58;;;;;;;39.77;36.27;;;1.20;99.90;;;;;;5030390;28;20451;-76
2022/11/27 07:45:26;;;;;;;39.10;36.13;;;1.40;99.90;;;;;;5030283;28;20457;-75
2022/11/27 07:47:53;;;;;;;39.20;36.00;;;1.50;99.90;;;;;;5030204;28;20765;-75
2022/11/27 07:50:19;;;;;;;35.40;32.70;;;1.30;99.90;;;;;;5030348;28;20853;-77
2022/11/27 07:52:46;;;;;;;39.80;36.60;;;1.20;99.90;;;;;;5028744;28;20981;-79
2022/11/27 07:55:13;;;;;;;40.43;37.13;;;1.10;99.90;;;;;;5030222;28;20473;-81
2022/11/27 07:57:41;;;;;;;40.03;37.03;;;1.10;99.90;;;;;;5028148;28;20461;-81
2022/11/27 08:00:09;;;;;;;35.30;32.60;;;1.00;99.90;;;;;;5030154;28;21124;-82
2022/11/27 08:02:37;;;;;;;42.40;38.53;;;1.00;99.90;;;;;;5030224;28;20835;-83
2022/11/27 08:05:04;;;;;;;35.93;33.23;;;1.10;99.90;;;;;;5030081;28;20459;-81
2022/11/27 08:07:31;;;;;;;32.10;29.97;;;1.30;99.90;;;;;;5031753;28;20952;-86
2022/11/27 08:09:58;;;;;;;32.37;29.83;;;1.40;99.90;;;;;;5030281;28;20464;-82
2022/11/27 08:12:25;;;;;;;30.27;28.10;;;1.30;99.90;;;;;;5029885;28;20451;-84
2022/11/27 08:14:52;;;;;;;33.30;30.73;;;1.30;99.90;;;;;;5030034;28;20444;-82
2022/11/27 08:17:19;;;;;;;33.30;30.87;;;1.60;99.90;;;;;;5030476;28;20459;-83
2022/11/27 08:19:47;;;;;;;31.33;28.87;;;1.80;99.90;;;;;;5027787;28;20545;-82
2022/11/27 08:22:15;;;;;;;32.90;30.70;;;1.90;99.90;;;;;;5027705;28;20605;-79
2022/11/27 08:24:42;;;;;;;34.83;32.43;;;2.20;99.90;;;;;;5029744;28;20449;-82
2022/11/27 08:27:09;;;;;;;33.60;31.40;;;2.30;99.90;;;;;;5029267;28;20445;-81
2022/11/27 08:29:36;;;;;;;31.50;29.20;;;2.20;99.90;;;;;;5030079;28;20234;-80
2022/11/27 08:32:04;;;;;;;28.90;27.10;;;2.20;99.90;;;;;;5030071;28;20829;-82
2022/11/27 08:34:31;;;;;;;27.63;25.93;;;2.30;99.90;;;;;;5029850;28;20549;-73
2022/11/27 08:36:59;;;;;;;26.17;24.60;;;2.40;99.90;;;;;;5030086;28;20475;-74
2022/11/27 08:39:26;;;;;;;28.10;26.30;;;2.10;99.90;;;;;;5029852;28;20575;-74
2022/11/27 08:41:53;;;;;;;30.80;28.97;;;2.40;99.90;;;;;;5030089;28;20450;-75
2022/11/27 08:44:20;;;;;;;29.80;28.00;;;2.70;99.90;;;;;;5029965;28;20456;-75
2022/11/27 08:46:47;;;;;;;30.00;28.50;;;2.90;99.90;;;;;;5029677;28;20450;-75
2022/11/27 08:49:14;;;;;;;29.87;28.37;;;2.90;99.90;;;;;;5029912;28;20452;-75
2022/11/27 08:51:40;;;;;;;31.50;29.87;;;2.70;99.90;;;;;;5029663;28;20463;-74
2022/11/27 08:54:08;;;;;;;30.70;28.80;;;2.70;99.90;;;;;;5029696;28;20453;-75
2022/11/27 08:56:35;;;;;;;31.67;29.87;;;3.10;99.90;;;;;;5029505;28;20448;-74
2022/11/27 08:59:03;;;;;;;30.57;28.67;;;3.30;99.90;;;;;;5029415;28;20539;-76
2022/11/27 09:01:32;;;;;;;27.90;26.40;;;3.40;99.90;;;;;;5032311;28;20476;-76
2022/11/27 09:03:59;;;;;;;26.93;25.43;;;3.80;99.90;;;;;;5030171;28;20882;-76
2022/11/27 09:06:28;;;;;;;25.93;24.43;;;4.00;99.90;;;;;;5029728;28;20469;-81
2022/11/27 09:08:56;;;;;;;25.27;23.73;;;4.20;99.90;;;;;;5029704;28;20448;-78
2022/11/27 09:11:25;;;;;;;27.70;25.90;;;4.30;99.90;;;;;;5029657;28;20830;-80
2022/11/27 09:13:51;;;;;;;28.03;26.53;;;4.30;99.90;;;;;;5027492;28;20445;-80
2022/11/27 09:16:21;;;;;;;24.53;23.07;;;4.90;99.90;;;;;;5029200;28;20950;-80
2022/11/27 09:18:49;;;;;;;23.23;21.97;;;5.40;99.90;;;;;;5029212;28;20484;-78
2022/11/27 09:21:17;;;;;;;22.13;20.73;;;5.70;99.90;;;;;;5029503;28;20959;-79
2022/11/27 09:23:44;;;;;;;21.57;20.27;;;5.90;99.90;;;;;;5029823;28;20445;-78
2022/11/27 09:26:13;;;;;;;21.27;20.07;;;6.30;99.90;;;;;;5029547;28;20452;-78
2022/11/27 09:28:42;;;;;;;21.27;19.97;;;6.40;99.90;;;;;;5029133;28;20477;-77
2022/11/27 09:31:11;;;;;;;19.63;18.60;;;6.60;99.90;;;;;;5029229;28;20448;-77
2022/11/27 09:33:39;;;;;;;22.63;21.33;;;6.20;99.90;;;;;;5029290;28;20745;-77
2022/11/27 09:36:07;;;;;;;21.87;20.67;;;5.80;99.90;;;;;;5029316;28;20444;-77
2022/11/27 09:38:34;;;;;;;21.93;20.70;;;5.40;99.90;;;;;;5029033;28;21019;-77
2022/11/27 09:41:07;;;;;;;21.83;20.63;;;4.90;99.90;;;;;;5029352;28;20961;-77
2022/11/27 09:43:42;;;;;;;21.17;19.90;;;4.40;99.90;;;;;;5029474;28;20896;-77
2022/11/27 09:46:18;;;;;;;20.43;19.13;;;4.40;99.90;;;;;;5029729;28;20459;-77
2022/11/27 09:48:48;;;;;;;21.00;19.50;;;4.60;99.90;;;;;;5029521;28;20462;-77
2022/11/27 09:51:25;;;;;;;21.17;19.87;;;4.50;99.90;;;;;;5032879;28;20452;-77
2022/11/27 09:54:00;;;;;;;20.97;19.70;;;4.40;99.90;;;;;;5027935;28;21386;-77
2022/11/27 09:56:28;;;;;;;22.10;20.60;;;4.50;99.90;;;;;;5032126;28;20458;-78
2022/11/27 09:58:58;;;;;;;20.37;19.07;;;4.50;99.90;;;;;;5032546;28;20482;-77
2022/11/27 10:01:29;;;;;;;23.67;22.07;;;4.20;99.90;;;;;;5032395;28;20447;-76
2022/11/27 10:03:56;;;;;;;23.90;22.00;;;4.00;99.90;;;;;;5032307;28;20456;-75
2022/11/27 10:06:28;;;;;;;19.70;18.40;;;4.20;99.90;;;;;;5032423;28;20967;-76
2022/11/27 10:09:11;;;;;;;19.40;18.20;;;5.00;99.90;;;;;;5032504;28;20443;-76
2022/11/27 10:11:48;;;;;;;19.97;18.50;;;5.40;99.90;;;;;;5032467;28;20495;-75
2022/11/27 10:14:42;;;;;;;20.20;18.90;;;5.50;99.90;;;;;;5032573;28;20923;-76
2022/11/27 10:17:15;;;;;;;19.70;18.60;;;5.60;99.90;;;;;;5032095;28;20449;-75
2022/11/27 10:19:50;;;;;;;19.53;18.20;;;5.50;99.90;;;;;;5032298;28;20506;-76
2022/11/27 10:22:23;;;;;;;19.70;18.50;;;5.40;99.90;;;;;;5032183;28;20466;-74
2022/11/27 10:25:00;;;;;;;20.27;18.97;;;5.20;99.90;;;;;;5031993;28;20455;-77
2022/11/27 10:27:32;;;;;;;20.53;19.20;;;5.00;99.90;;;;;;5032157;28;20465;-74
2022/11/27 10:30:01;;;;;;;20.77;19.27;;;5.10;99.90;;;;;;5032050;28;20476;-75
2022/11/27 10:32:31;;;;;;;19.47;18.07;;;5.30;99.90;;;;;;5032080;28;20451;-75
2022/11/27 10:35:01;;;;;;;19.07;17.83;;;5.30;99.90;;;;;;5032058;28;20799;-76
2022/11/27 10:37:33;;;;;;;22.20;20.60;;;5.30;99.90;;;;;;5032199;28;20449;-76
2022/11/27 10:40:06;;;;;;;20.43;19.00;;;5.30;99.90;;;;;;5031974;28;20492;-76
2022/11/27 10:42:37;;;;;;;18.83;17.43;;;5.60;99.90;;;;;;5031860;28;20445;-77
2022/11/27 10:45:07;;;;;;;17.97;16.70;;;6.50;99.90;;;;;;5031644;28;20453;-76
2022/11/27 10:47:37;;;;;;;17.80;16.80;;;7.60;99.90;;;;;;5031572;28;20453;-76
2022/11/27 10:50:12;;;;;;;17.53;16.57;;;8.50;99.90;;;;;;5031490;28;20448;-75
2022/11/27 10:52:46;;;;;;;17.67;16.57;;;8.70;99.90;;;;;;5031475;28;20445;-76
2022/11/27 10:55:21;;;;;;;18.03;16.93;;;8.20;99.90;;;;;;5031805;28;20943;-76
2022/11/27 10:58:01;;;;;;;18.30;17.10;;;8.60;99.90;;;;;;5031501;28;20797;-76
2022/11/27 11:00:28;;;;;;;17.87;16.77;;;9.10;99.90;;;;;;5030285;28;20481;-77
2022/11/27 11:03:04;;;;;;;16.93;15.83;;;9.40;99.90;;;;;;5031315;28;20456;-76
2022/11/27 11:05:32;;;;;;;18.77;17.57;;;9.90;99.90;;;;;;5031581;28;20942;-76
2022/11/27 11:08:03;;;;;;;18.20;16.80;;;10.10;99.90;;;;;;5031449;28;20446;-77
2022/11/27 11:10:33;;;;;;;17.27;16.27;;;10.30;99.90;;;;;;5031598;28;20449;-77
2022/11/27 11:13:18;;;;;;;16.80;15.80;;;10.70;99.90;;;;;;5031436;28;20453;-77
2022/11/27 11:15:55;;;;;;;16.63;15.60;;;9.90;99.90;;;;;;5031369;28;20449;-76
2022/11/27 11:18:25;;;;;;;17.87;16.77;;;9.70;99.90;;;;;;5031054;28;20467;-76
2022/11/27 11:20:55;;;;;;;19.07;17.77;;;9.70;99.90;;;;;;5030886;28;20766;-76
2022/11/27 11:23:33;;;;;;;17.67;16.67;;;9.90;99.90;;;;;;5031287;28;20849;-76
2022/11/27 11:26:08;;;;;;;18.67;16.83;;;10.40;99.90;;;;;;5031268;28;20445;-76
2022/11/27 11:28:42;;;;;;;17.10;16.20;;;10.20;99.90;;;;;;5030636;28;21000;-77
2022/11/27 11:31:13;;;;;;;17.50;16.37;;;10.50;99.90;;;;;;5030950;28;20448;-77
2022/11/27 11:33:54;;;;;;;18.10;16.90;;;10.60;99.90;;;;;;5030772;28;20445;-76
2022/11/27 11:36:21;;;;;;;18.50;17.60;;;10.30;99.90;;;;;;5030881;28;20527;-76
2022/11/27 11:38:50;;;;;;;18.43;17.33;;;10.30;99.90;;;;;;5030572;28;21062;-76
2022/11/27 11:41:17;;;;;;;17.77;16.77;;;9.80;99.90;;;;;;5030792;28;20453;-76
2022/11/27 11:43:55;;;;;;;18.40;17.10;;;9.10;99.90;;;;;;5030826;28;20453;-76
2022/11/27 11:46:27;;;;;;;19.60;18.30;;;8.50;99.90;;;;;;5030610;28;20445;-76
2022/11/27 11:48:58;;;;;;;20.43;19.13;;;8.20;99.90;;;;;;5030436;28;20817;-76
2022/11/27 11:51:36;;;;;;;18.70;17.67;;;8.00;99.90;;;;;;5030464;28;20453;-76
2022/11/27 11:54:12;;;;;;;19.63;18.23;;;7.90;99.90;;;;;;5030552;28;20793;-76
2022/11/27 11:56:43;;;;;;;19.23;17.90;;;8.00;99.90;;;;;;5030416;28;20969;-76
2022/11/27 11:59:17;;;;;;;19.10;17.83;;;8.40;99.90;;;;;;5030229;28;20538;-76
2022/11/27 12:02:00;;;;;;;18.50;17.40;;;8.60;99.90;;;;;;5030464;28;20814;-76
2022/11/27 12:04:44;;;;;;;18.50;17.40;;;9.10;99.90;;;;;;5030326;28;20973;-76
2022/11/27 12:07:24;;;;;;;18.60;17.30;;;9.70;99.90;;;;;;5030184;28;20452;-76
2022/11/27 12:10:01;;;;;;;19.57;18.17;;;10.10;99.90;;;;;;5030136;28;20441;-76
2022/11/27 12:12:44;;;;;;;20.27;18.73;;;10.70;99.90;;;;;;5029887;28;20478;-76
2022/11/27 12:15:19;;;;;;;19.27;17.97;;;10.60;99.90;;;;;;5029950;28;20445;-76
2022/11/27 12:17:56;;;;;;;19.60;18.20;;;10.50;99.90;;;;;;5029871;28;20445;-76
2022/11/27 12:20:33;;;;;;;17.70;16.60;;;10.30;99.90;;;;;;5030076;28;20489;-77
2022/11/27 12:23:32;;;;;;;19.13;18.03;;;10.30;99.90;;;;;;5030035;28;20461;-77
2022/11/27 12:26:07;;;;;;;19.90;18.67;;;10.00;99.90;;;;;;5030154;28;20461;-77
2022/11/27 12:29:03;;;;;;;18.27;17.17;;;10.30;99.90;;;;;;5029424;28;20484;-77
2022/11/27 12:31:45;;;;;;;17.60;16.60;;;10.60;99.90;;;;;;5030074;28;20460;-76
2022/11/27 12:34:21;;;;;;;19.00;17.80;;;10.80;99.90;;;;;;5030077;28;20910;-76
2022/11/27 12:37:09;;;;;;;18.47;17.20;;;10.10;99.90;;;;;;5029647;28;20455;-76
2022/11/27 12:39:50;;;;;;;18.13;17.13;;;9.50;99.90;;;;;;5029592;28;20489;-75
2022/11/27 12:42:21;;;;;;;20.13;18.70;;;9.10;99.90;;;;;;5029788;28;20943;-76
2022/11/27 12:44:56;;;;;;;18.43;17.20;;;8.90;99.90;;;;;;5029614;28;20951;-76
2022/11/27 12:47:28;;;;;;;18.60;17.30;;;8.80;99.90;;;;;;5029690;28;20969;-76
2022/11/27 12:49:59;;;;;;;19.47;18.30;;;8.80;99.90;;;;;;5029833;28;20449;-76